createdAt,value
2023-05-15T00:00:37.481Z,15.20
2023-05-15T00:05:40.658Z,15.38
2023-05-15T00:10:57.468Z,14.40
2023-05-15T00:16:04.575Z,14.85
2023-05-15T00:21:07.711Z,14.70
2023-05-15T00:26:15.658Z,14.70
2023-05-15T00:31:18.838Z,13.88
2023-05-15T00:36:24.285Z,13.50
2023-05-15T00:41:32.098Z,13.90
2023-05-15T00:46:36.561Z,13.88
2023-05-15T00:51:41.532Z,14.05
2023-05-15T00:56:47.201Z,12.05
2023-05-15T01:01:53.011Z,12.93
2023-05-15T01:06:56.904Z,12.45
2023-05-15T01:12:02.099Z,14.95
2023-05-15T01:17:05.250Z,14.10
2023-05-15T01:22:29.032Z,14.77
2023-05-15T01:27:37.968Z,13.73
2023-05-15T01:32:44.519Z,15.15
2023-05-15T01:37:50.368Z,13.80
2023-05-15T01:42:55.978Z,13.52
2023-05-15T01:48:00.643Z,14.77
2023-05-15T01:53:04.286Z,12.90
2023-05-15T01:58:09.512Z,14.40
2023-05-15T02:03:12.798Z,14.30
2023-05-15T02:08:17.393Z,13.57
2023-05-15T02:13:22.928Z,14.05
2023-05-15T02:18:26.174Z,14.30
2023-05-15T02:23:29.390Z,13.63
2023-05-15T02:28:38.270Z,14.55
2023-05-15T02:33:44.407Z,13.85
2023-05-15T02:38:48.458Z,13.52
2023-05-15T02:43:55.187Z,14.02
2023-05-15T02:48:58.446Z,14.23
2023-05-15T02:54:02.022Z,14.45
2023-05-15T02:59:06.799Z,14.15
2023-05-15T03:04:10.059Z,14.73
2023-05-15T03:09:13.291Z,16.40
2023-05-15T03:14:17.836Z,16.30
2023-05-15T03:19:20.980Z,17.55
2023-05-15T03:24:24.113Z,20.15
2023-05-15T03:29:28.647Z,20.77
2023-05-15T03:34:32.288Z,22.80
2023-05-15T03:39:35.681Z,22.13
2023-05-15T03:44:40.141Z,23.55
2023-05-15T03:49:43.244Z,24.25
2023-05-15T03:54:46.319Z,24.38
2023-05-15T03:59:50.818Z,24.15
2023-05-15T04:04:54.026Z,23.48
2023-05-15T04:09:57.298Z,23.73
2023-05-15T04:15:14.536Z,24.60
2023-05-15T04:20:18.255Z,25.15
2023-05-15T04:25:21.359Z,23.40
2023-05-15T04:30:25.851Z,23.27
2023-05-15T04:35:29.065Z,21.70
2023-05-15T04:40:32.401Z,22.98
2023-05-15T04:45:36.901Z,22.42
2023-05-15T04:50:40.059Z,24.38
2023-05-15T04:55:43.186Z,22.50
2023-05-15T05:00:47.662Z,23.13
2023-05-15T05:05:50.788Z,22.98
2023-05-15T05:10:56.498Z,24.23
2023-05-15T05:16:01.056Z,23.30
2023-05-15T05:21:04.768Z,23.15
2023-05-15T05:26:07.871Z,22.98
2023-05-15T05:31:12.423Z,22.67
2023-05-15T05:36:15.586Z,20.63
2023-05-15T05:41:18.788Z,21.23
2023-05-15T05:46:23.396Z,19.40
2023-05-15T05:51:26.624Z,20.70
2023-05-15T05:56:29.870Z,19.30
2023-05-15T06:01:34.493Z,19.63
2023-05-15T06:06:37.631Z,19.00
2023-05-15T06:11:40.754Z,18.80
2023-05-15T06:16:45.285Z,17.38
2023-05-15T06:21:48.617Z,18.42
2023-05-15T06:26:52.462Z,18.55
2023-05-15T06:31:57.153Z,15.82
2023-05-15T06:37:00.285Z,17.92
2023-05-15T06:42:03.514Z,16.85
2023-05-15T06:47:08.441Z,17.38
2023-05-15T06:52:11.734Z,17.10
2023-05-15T06:57:14.793Z,15.25
2023-05-15T07:02:19.347Z,16.48
2023-05-15T07:07:22.435Z,16.92
2023-05-15T07:12:25.900Z,19.02
2023-05-15T07:17:31.312Z,17.52
2023-05-15T07:22:41.556Z,15.73
2023-05-15T07:27:51.474Z,14.70
2023-05-15T07:32:56.051Z,16.83
2023-05-15T07:37:59.291Z,16.60
2023-05-15T07:43:02.520Z,15.63
2023-05-15T07:48:15.870Z,17.58
2023-05-15T07:53:19.753Z,16.98
2023-05-15T07:58:23.359Z,18.48
2023-05-15T08:03:27.947Z,18.63
2023-05-15T08:08:31.298Z,16.70
2023-05-15T08:13:34.382Z,14.55
2023-05-15T08:18:38.924Z,12.02
2023-05-15T08:23:42.132Z,12.90
2023-05-15T08:28:45.278Z,14.63
2023-05-15T08:33:49.801Z,15.20
2023-05-15T08:38:52.935Z,17.60
2023-05-15T08:43:56.781Z,17.35
2023-05-15T08:49:03.065Z,18.23
2023-05-15T08:54:06.276Z,17.25
2023-05-15T08:59:09.636Z,18.42
2023-05-15T09:04:14.396Z,17.60
2023-05-15T09:09:19.537Z,16.95
2023-05-15T09:14:22.685Z,16.48
2023-05-15T09:19:27.964Z,17.23
2023-05-15T09:24:31.632Z,18.13
2023-05-15T09:29:35.650Z,18.23
2023-05-15T09:34:41.105Z,19.35
2023-05-15T09:39:44.804Z,20.25
2023-05-15T09:44:48.061Z,21.35
2023-05-15T09:49:53.650Z,19.60
2023-05-15T09:54:57.323Z,21.33
2023-05-15T10:00:02.527Z,19.88
2023-05-15T10:05:16.533Z,21.10
2023-05-15T10:10:19.758Z,21.63
2023-05-15T10:15:23.746Z,22.50
2023-05-15T10:20:28.364Z,23.15
2023-05-15T10:25:35.203Z,23.88
2023-05-15T10:30:38.695Z,22.92
2023-05-15T10:35:43.598Z,19.27
2023-05-15T10:40:47.902Z,22.58
2023-05-15T10:45:51.969Z,24.83
2023-05-15T10:50:56.408Z,24.83
2023-05-15T10:55:59.835Z,22.17
2023-05-15T11:01:03.080Z,21.60
2023-05-15T11:06:11.552Z,22.65
2023-05-15T11:11:29.546Z,21.10
2023-05-15T11:16:51.427Z,21.92
2023-05-15T11:21:59.352Z,19.35
2023-05-15T11:27:03.161Z,15.02
2023-05-15T11:32:27.704Z,10.82
2023-05-15T11:37:32.291Z,12.18
2023-05-15T11:42:35.464Z,17.90
2023-05-15T11:47:38.622Z,16.85
2023-05-15T11:52:43.477Z,26.05
2023-05-15T11:57:47.054Z,31.40
2023-05-15T12:02:50.311Z,40.85
2023-05-15T12:07:54.925Z,21.83
2023-05-15T12:12:59.720Z,17.60
2023-05-15T12:18:04.634Z,24.35
2023-05-15T12:23:09.414Z,20.38
2023-05-15T12:28:12.983Z,26.63
2023-05-15T12:33:16.292Z,26.98
2023-05-15T12:38:22.003Z,27.13
2023-05-15T12:43:25.573Z,27.88
2023-05-15T12:48:32.859Z,28.83
2023-05-15T12:53:39.899Z,26.33
2023-05-15T12:58:43.343Z,24.02
2023-05-15T13:03:46.589Z,24.48
2023-05-15T13:08:51.172Z,25.38
2023-05-15T13:13:55.047Z,24.10
2023-05-15T13:18:58.768Z,22.08
2023-05-15T13:24:03.527Z,21.35
2023-05-15T13:29:06.652Z,22.48
2023-05-15T13:34:09.814Z,22.27
2023-05-15T13:39:14.353Z,21.83
2023-05-15T13:44:17.444Z,19.58
2023-05-15T13:49:20.504Z,17.35
2023-05-15T13:54:25.014Z,18.13
2023-05-15T13:59:28.667Z,19.10
2023-05-15T14:04:31.816Z,14.85
2023-05-15T14:09:36.403Z,15.13
2023-05-15T14:14:39.518Z,14.68
2023-05-15T14:19:42.633Z,13.23
2023-05-15T14:24:47.099Z,12.48
2023-05-15T14:29:51.248Z,12.82
2023-05-15T14:34:54.396Z,11.88
2023-05-15T14:39:58.963Z,13.10
2023-05-15T14:45:02.162Z,11.68
2023-05-15T14:50:05.617Z,12.80
2023-05-15T14:55:10.749Z,11.02
2023-05-15T15:00:14.699Z,12.25
2023-05-15T15:05:18.668Z,16.02
2023-05-15T15:10:23.287Z,16.33
2023-05-15T15:15:26.820Z,15.77
2023-05-15T15:20:30.285Z,13.63
2023-05-15T15:25:35.843Z,13.40
2023-05-15T15:30:38.973Z,14.10
2023-05-15T15:35:42.117Z,12.30
2023-05-15T15:40:46.638Z,12.00
2023-05-15T15:45:49.824Z,10.15
2023-05-15T15:50:53.309Z,9.82
2023-05-15T15:55:57.869Z,9.52
2023-05-15T16:01:01.261Z,9.23
2023-05-15T16:06:04.580Z,8.68
2023-05-15T16:11:09.073Z,9.48
2023-05-15T16:16:12.233Z,10.23
2023-05-15T16:21:15.575Z,9.43
2023-05-15T16:26:20.565Z,10.05
2023-05-15T16:31:23.759Z,10.05
2023-05-15T16:36:27.191Z,8.27
2023-05-15T16:41:31.666Z,8.85
2023-05-15T16:46:34.893Z,11.25
2023-05-15T16:51:38.009Z,9.25
2023-05-15T16:56:42.494Z,9.10
2023-05-15T17:01:45.679Z,8.02
2023-05-15T17:06:48.958Z,7.53
2023-05-15T17:11:53.503Z,7.70
2023-05-15T17:16:56.674Z,5.55
2023-05-15T17:21:59.772Z,6.90
2023-05-15T17:27:04.403Z,7.18
2023-05-15T17:32:07.844Z,5.32
2023-05-15T17:37:11.556Z,5.20
2023-05-15T17:42:16.044Z,5.35
2023-05-15T17:47:19.201Z,5.28
2023-05-15T17:52:22.324Z,4.50
2023-05-15T17:57:27.002Z,4.60
2023-05-15T18:02:30.121Z,3.78
2023-05-15T18:07:33.249Z,4.28
2023-05-15T18:12:37.811Z,3.05
2023-05-15T18:17:40.961Z,3.45
2023-05-15T18:22:45.966Z,4.75
2023-05-15T18:27:50.426Z,3.05
2023-05-15T18:32:53.679Z,2.58
2023-05-15T18:37:56.797Z,2.90
2023-05-15T18:43:01.388Z,2.25
2023-05-15T18:48:04.744Z,2.13
2023-05-15T18:53:07.963Z,2.60
2023-05-15T18:58:12.604Z,2.72
2023-05-15T19:03:15.928Z,2.58
2023-05-15T19:08:19.373Z,3.15
2023-05-15T19:13:24.090Z,2.97
2023-05-15T19:18:27.233Z,2.97
2023-05-15T19:23:30.378Z,2.92
2023-05-15T19:28:35.226Z,2.67
2023-05-15T19:33:38.379Z,2.65
2023-05-15T19:38:41.593Z,2.20
2023-05-15T19:43:46.979Z,2.72
2023-05-15T19:48:50.260Z,2.67
2023-05-15T19:53:53.428Z,2.20
2023-05-15T19:58:58.119Z,3.03
2023-05-15T20:04:01.312Z,2.30
2023-05-15T20:09:05.141Z,1.75
2023-05-15T20:14:09.615Z,1.90
2023-05-15T20:19:12.910Z,1.58
2023-05-15T20:24:17.505Z,1.52
2023-05-15T20:29:21.999Z,1.77
2023-05-15T20:34:25.098Z,1.77
2023-05-15T20:39:28.254Z,1.40
2023-05-15T20:44:36.312Z,1.55
2023-05-15T20:49:39.462Z,1.65
2023-05-15T20:54:42.555Z,2.78
2023-05-15T20:59:47.021Z,1.40
2023-05-15T21:04:50.151Z,1.60
2023-05-15T21:09:53.307Z,1.45
2023-05-15T21:14:57.919Z,1.20
2023-05-15T21:20:02.022Z,1.13
2023-05-15T21:25:05.386Z,1.30
2023-05-15T21:30:11.100Z,1.45
2023-05-15T21:35:14.261Z,1.42
2023-05-15T21:40:19.150Z,1.10
2023-05-15T21:45:23.725Z,1.40
2023-05-15T21:50:27.529Z,1.40
2023-05-15T21:55:30.864Z,1.25
2023-05-15T22:00:35.528Z,2.00
2023-05-15T22:05:38.667Z,1.75
2023-05-15T22:10:41.938Z,1.42
2023-05-15T22:15:46.624Z,2.55
2023-05-15T22:20:50.478Z,2.10
2023-05-15T22:25:53.603Z,2.00
2023-05-15T22:30:58.066Z,2.90
2023-05-15T22:36:01.205Z,2.17
2023-05-15T22:41:04.536Z,2.92
2023-05-15T22:46:09.129Z,1.80
2023-05-15T22:51:12.224Z,2.67
2023-05-15T22:56:15.514Z,2.95
2023-05-15T23:01:20.128Z,2.15
2023-05-15T23:06:23.290Z,2.72
2023-05-15T23:11:26.671Z,2.03
2023-05-15T23:16:32.009Z,2.20
2023-05-15T23:21:35.189Z,2.53
2023-05-15T23:26:38.320Z,2.58
2023-05-15T23:31:44.003Z,3.00
2023-05-15T23:36:47.213Z,2.83
2023-05-15T23:41:50.348Z,3.03
2023-05-15T23:46:54.975Z,2.85
2023-05-15T23:51:58.215Z,2.60
2023-05-15T23:57:01.742Z,2.42
